createdAt,value
2019-03-17T00:00:28.506Z,0.00
2019-03-17T00:01:28.492Z,0.00
2019-03-17T00:02:28.490Z,0.00
2019-03-17T00:03:28.504Z,0.00
2019-03-17T00:04:31.806Z,0.00
2019-03-17T00:05:28.451Z,0.00
2019-03-17T00:06:28.440Z,0.00
2019-03-17T00:07:28.433Z,0.00
2019-03-17T00:08:28.442Z,0.00
2019-03-17T00:09:28.416Z,0.00
2019-03-17T00:10:28.403Z,0.00
2019-03-17T00:11:28.467Z,0.00
2019-03-17T00:12:31.306Z,0.00
2019-03-17T00:13:28.380Z,0.00
2019-03-17T00:14:28.357Z,0.00
2019-03-17T00:15:28.359Z,0.00
2019-03-17T00:16:28.332Z,0.00
2019-03-17T00:17:28.327Z,0.00
2019-03-17T00:18:28.328Z,0.00
2019-03-17T00:19:28.303Z,0.00
2019-03-17T00:20:28.297Z,0.00
2019-03-17T00:21:28.279Z,0.00
2019-03-17T00:22:28.281Z,0.00
2019-03-17T00:23:28.273Z,0.00
2019-03-17T00:24:28.251Z,0.00
2019-03-17T00:25:28.243Z,0.00
2019-03-17T00:26:28.221Z,0.00
2019-03-17T00:27:28.213Z,0.00
2019-03-17T00:28:28.231Z,0.00
2019-03-17T00:29:28.194Z,0.00
2019-03-17T00:30:28.177Z,0.00
2019-03-17T00:31:28.172Z,0.00
2019-03-17T00:32:28.273Z,0.00
2019-03-17T00:33:28.171Z,0.00
2019-03-17T00:34:28.139Z,0.00
2019-03-17T00:35:28.177Z,0.00
2019-03-17T00:36:28.119Z,0.00
2019-03-17T00:37:28.109Z,0.00
2019-03-17T00:38:28.127Z,0.00
2019-03-17T00:39:28.081Z,0.00
2019-03-17T00:40:28.086Z,0.00
2019-03-17T00:41:28.074Z,0.00
2019-03-17T00:42:28.051Z,0.00
2019-03-17T00:43:28.074Z,0.00
2019-03-17T00:44:28.027Z,0.00
2019-03-17T00:45:28.023Z,0.00
2019-03-17T00:46:28.018Z,0.00
2019-03-17T00:47:28.007Z,0.00
2019-03-17T00:48:28.001Z,0.00
2019-03-17T00:49:27.994Z,0.00
2019-03-17T00:50:27.964Z,0.00
2019-03-17T00:51:27.953Z,0.00
2019-03-17T00:52:27.942Z,0.00
2019-03-17T00:53:27.931Z,0.00
2019-03-17T00:54:27.958Z,0.00
2019-03-17T00:55:27.916Z,0.00
2019-03-17T00:56:27.904Z,0.00
2019-03-17T00:57:27.900Z,0.00
2019-03-17T00:58:27.874Z,0.00
2019-03-17T00:59:27.881Z,0.00
2019-03-17T01:00:27.893Z,0.00
2019-03-17T01:01:27.840Z,0.00
2019-03-17T01:02:27.830Z,0.00
2019-03-17T01:03:27.828Z,0.00
2019-03-17T01:04:27.822Z,0.00
2019-03-17T01:05:27.796Z,0.00
2019-03-17T01:06:27.793Z,0.00
2019-03-17T01:07:27.792Z,0.00
2019-03-17T01:08:27.770Z,0.00
2019-03-17T01:09:27.782Z,0.00
2019-03-17T01:10:27.740Z,0.00
2019-03-17T01:11:27.736Z,0.00
2019-03-17T01:12:27.725Z,0.00
2019-03-17T01:13:27.737Z,0.00
2019-03-17T01:14:27.734Z,0.00
2019-03-17T01:15:27.693Z,0.00
2019-03-17T01:16:27.679Z,0.00
2019-03-17T01:17:27.669Z,0.00
2019-03-17T01:18:27.655Z,0.00
2019-03-17T01:19:27.667Z,0.00
2019-03-17T01:20:27.657Z,0.00
2019-03-17T01:21:27.625Z,0.00
2019-03-17T01:22:27.617Z,0.00
2019-03-17T01:23:27.603Z,0.00
2019-03-17T01:24:27.614Z,0.00
2019-03-17T01:25:27.582Z,0.00
2019-03-17T01:26:27.571Z,0.00
2019-03-17T01:27:27.569Z,0.00
2019-03-17T01:28:27.546Z,0.00
2019-03-17T01:29:27.568Z,0.00
2019-03-17T01:30:27.529Z,0.00
2019-03-17T01:31:27.517Z,0.00
2019-03-17T01:32:27.507Z,0.00
2019-03-17T01:33:27.515Z,0.00
2019-03-17T01:34:27.483Z,0.00
2019-03-17T01:35:27.487Z,0.00
2019-03-17T01:36:27.468Z,0.00
2019-03-17T01:37:27.466Z,0.00
2019-03-17T01:38:27.439Z,0.00
2019-03-17T01:39:27.455Z,0.00
2019-03-17T01:40:27.431Z,0.00
2019-03-17T01:41:27.409Z,0.00
2019-03-17T01:42:27.395Z,0.00
2019-03-17T01:43:27.387Z,0.00
2019-03-17T01:44:27.377Z,0.00
2019-03-17T01:45:27.453Z,0.00
2019-03-17T01:46:27.353Z,0.00
2019-03-17T01:47:27.852Z,0.00
2019-03-17T01:48:27.334Z,0.00
2019-03-17T01:49:27.321Z,0.00
2019-03-17T01:50:27.331Z,0.00
2019-03-17T01:51:27.304Z,0.00
2019-03-17T01:52:27.289Z,0.00
2019-03-17T01:53:27.274Z,0.00
2019-03-17T01:54:27.267Z,0.00
2019-03-17T01:55:27.277Z,0.00
2019-03-17T01:56:27.249Z,0.00
2019-03-17T01:57:27.240Z,0.00
2019-03-17T01:58:27.220Z,0.00
2019-03-17T01:59:27.211Z,0.00
2019-03-17T02:00:27.215Z,0.00
2019-03-17T02:01:27.207Z,0.00
2019-03-17T02:02:27.194Z,0.00
2019-03-17T02:03:27.178Z,0.00
2019-03-17T02:04:27.176Z,0.00
2019-03-17T02:05:27.162Z,0.00
2019-03-17T02:06:27.141Z,0.00
2019-03-17T02:07:27.125Z,0.00
2019-03-17T02:08:27.116Z,0.00
2019-03-17T02:09:27.108Z,0.00
2019-03-17T02:10:27.117Z,0.00
2019-03-17T02:11:27.084Z,0.00
2019-03-17T02:12:27.071Z,0.00
2019-03-17T02:13:27.081Z,0.00
2019-03-17T02:14:27.053Z,0.00
2019-03-17T02:15:27.053Z,0.00
2019-03-17T02:16:27.048Z,0.00
2019-03-17T02:17:27.019Z,0.00
2019-03-17T02:18:27.008Z,0.00
2019-03-17T02:19:27.000Z,0.00
2019-03-17T02:20:27.022Z,0.00
2019-03-17T02:21:26.977Z,0.00
2019-03-17T02:22:26.976Z,0.00
2019-03-17T02:23:26.958Z,0.00
2019-03-17T02:24:26.943Z,0.00
2019-03-17T02:25:26.934Z,0.00
2019-03-17T02:26:26.937Z,0.00
2019-03-17T02:27:26.910Z,0.00
2019-03-17T02:28:26.904Z,0.00
2019-03-17T02:29:26.887Z,0.00
2019-03-17T02:30:26.889Z,0.00
2019-03-17T02:31:26.880Z,0.00
2019-03-17T02:32:26.855Z,0.00
2019-03-17T02:33:26.845Z,0.00
2019-03-17T02:34:26.836Z,0.00
2019-03-17T02:35:38.900Z,0.00
2019-03-17T02:36:28.007Z,0.00
2019-03-17T02:37:26.802Z,0.00
2019-03-17T02:38:26.812Z,0.00
2019-03-17T02:39:26.796Z,0.00
2019-03-17T02:40:26.770Z,0.00
2019-03-17T02:41:26.771Z,0.00
2019-03-17T02:42:26.760Z,0.00
2019-03-17T02:43:26.752Z,0.00
2019-03-17T02:44:26.728Z,0.00
2019-03-17T02:45:26.710Z,0.00
2019-03-17T02:46:26.719Z,0.00
2019-03-17T02:47:26.691Z,0.00
2019-03-17T02:48:26.706Z,0.00
2019-03-17T02:49:26.670Z,0.00
2019-03-17T02:50:26.664Z,0.00
2019-03-17T02:51:26.664Z,0.00
2019-03-17T02:52:26.637Z,0.00
2019-03-17T02:53:26.628Z,0.00
2019-03-17T02:54:26.625Z,0.00
2019-03-17T02:55:26.633Z,0.00
2019-03-17T02:56:26.611Z,0.00
2019-03-17T02:57:26.586Z,0.00
2019-03-17T02:58:26.572Z,0.00
2019-03-17T02:59:26.562Z,0.00
2019-03-17T03:00:26.563Z,0.00
2019-03-17T03:01:26.575Z,0.00
2019-03-17T03:02:26.559Z,0.00
2019-03-17T03:03:26.518Z,0.00
2019-03-17T03:04:26.525Z,0.00
2019-03-17T03:05:26.500Z,0.00
2019-03-17T03:06:26.502Z,0.00
2019-03-17T03:07:26.477Z,0.00
2019-03-17T03:08:26.475Z,0.00
2019-03-17T03:09:26.467Z,0.00
2019-03-17T03:10:26.441Z,0.00
2019-03-17T03:11:26.451Z,0.00
2019-03-17T03:12:26.420Z,0.00
2019-03-17T03:13:26.417Z,0.00
2019-03-17T03:14:26.405Z,0.00
2019-03-17T03:15:26.405Z,0.00
2019-03-17T03:16:26.393Z,0.00
2019-03-17T03:17:26.390Z,0.00
2019-03-17T03:18:26.361Z,0.00
2019-03-17T03:19:26.344Z,0.00
2019-03-17T03:20:26.334Z,0.00
2019-03-17T03:21:26.365Z,0.00
2019-03-17T03:22:26.313Z,0.00
2019-03-17T03:23:26.307Z,0.00
2019-03-17T03:24:26.292Z,0.00
2019-03-17T03:25:26.279Z,0.00
2019-03-17T03:26:26.268Z,0.00
2019-03-17T03:27:26.275Z,0.00
2019-03-17T03:28:26.249Z,0.00
2019-03-17T03:29:27.435Z,0.00
2019-03-17T03:30:26.223Z,0.00
2019-03-17T03:31:26.226Z,0.00
2019-03-17T03:32:26.218Z,0.00
2019-03-17T03:33:26.199Z,0.00
2019-03-17T03:34:26.186Z,0.00
2019-03-17T03:35:26.172Z,0.00
2019-03-17T03:36:26.158Z,0.00
2019-03-17T03:37:26.192Z,0.00
2019-03-17T03:38:26.142Z,0.00
2019-03-17T03:39:26.139Z,0.00
2019-03-17T03:40:26.119Z,0.00
2019-03-17T03:41:26.115Z,0.00
2019-03-17T03:42:26.111Z,0.00
2019-03-17T03:43:26.101Z,0.00
2019-03-17T03:44:26.190Z,0.00
2019-03-17T03:45:26.078Z,0.00
2019-03-17T03:46:26.068Z,0.00
2019-03-17T03:47:26.077Z,0.00
2019-03-17T03:48:26.039Z,0.00
2019-03-17T03:49:26.020Z,0.00
2019-03-17T03:50:26.013Z,0.00
2019-03-17T03:51:25.998Z,0.00
2019-03-17T03:52:26.002Z,0.00
2019-03-17T03:53:25.989Z,0.00
2019-03-17T03:54:25.966Z,0.00
2019-03-17T03:55:25.961Z,0.00
2019-03-17T03:56:25.955Z,0.00
2019-03-17T03:57:26.009Z,0.00
2019-03-17T03:58:25.951Z,0.00
2019-03-17T03:59:25.965Z,0.00
2019-03-17T04:00:25.906Z,0.00
2019-03-17T04:01:25.918Z,0.00
2019-03-17T04:02:25.893Z,0.00
2019-03-17T04:03:25.864Z,0.00
2019-03-17T04:04:25.860Z,0.00
2019-03-17T04:05:25.862Z,0.00
2019-03-17T04:06:27.162Z,0.00
2019-03-17T04:07:25.840Z,0.00
2019-03-17T04:08:25.815Z,0.00
2019-03-17T04:09:25.804Z,0.00
2019-03-17T04:10:25.793Z,0.00
2019-03-17T04:11:25.787Z,0.00
2019-03-17T04:12:25.790Z,0.00
2019-03-17T04:13:25.758Z,0.00
2019-03-17T04:14:25.769Z,0.00
2019-03-17T04:15:25.734Z,0.00
2019-03-17T04:16:25.725Z,0.00
2019-03-17T04:17:25.746Z,0.00
2019-03-17T04:18:25.716Z,0.00
2019-03-17T04:19:25.691Z,0.00
2019-03-17T04:20:25.684Z,0.00
2019-03-17T04:21:25.675Z,0.00
2019-03-17T04:22:25.674Z,0.00
2019-03-17T04:23:25.649Z,0.00
2019-03-17T04:24:25.659Z,0.00
2019-03-17T04:25:25.633Z,0.00
2019-03-17T04:26:25.622Z,0.00
2019-03-17T04:27:25.625Z,0.00
2019-03-17T04:28:25.593Z,0.00
2019-03-17T04:29:25.646Z,0.00
2019-03-17T04:30:25.584Z,0.00
2019-03-17T04:31:25.563Z,0.00
2019-03-17T04:32:25.589Z,0.00
2019-03-17T04:33:25.547Z,0.00
2019-03-17T04:34:25.530Z,0.00
2019-03-17T04:35:25.522Z,0.00
2019-03-17T04:36:39.053Z,0.00
2019-03-17T04:37:26.537Z,0.00
2019-03-17T04:38:25.488Z,0.00
2019-03-17T04:39:25.504Z,0.00
2019-03-17T04:40:25.467Z,0.00
2019-03-17T04:41:25.453Z,0.00
2019-03-17T04:42:25.444Z,0.00
2019-03-17T04:43:25.455Z,0.00
2019-03-17T04:44:25.429Z,4.00
2019-03-17T04:45:25.521Z,4.00
2019-03-17T04:46:25.415Z,4.00
2019-03-17T04:47:25.391Z,0.00
2019-03-17T04:48:25.399Z,4.00
2019-03-17T04:49:25.391Z,4.00
2019-03-17T04:50:25.357Z,8.00
2019-03-17T04:51:25.349Z,4.00
2019-03-17T04:52:25.395Z,8.00
2019-03-17T04:53:25.345Z,8.00
2019-03-17T04:54:25.319Z,8.00
2019-03-17T04:55:25.300Z,12.00
2019-03-17T04:56:25.291Z,12.00
2019-03-17T04:57:25.288Z,16.00
2019-03-17T04:58:25.296Z,20.00
2019-03-17T04:59:25.295Z,24.00
2019-03-17T05:00:25.254Z,28.00
2019-03-17T05:01:25.255Z,32.00
2019-03-17T05:02:25.235Z,36.00
2019-03-17T05:03:25.235Z,44.00
2019-03-17T05:04:25.208Z,48.00
2019-03-17T05:05:25.206Z,56.00
2019-03-17T05:06:25.186Z,60.00
2019-03-17T05:07:25.172Z,68.00
2019-03-17T05:08:25.209Z,80.00
2019-03-17T05:09:25.152Z,88.00
2019-03-17T05:10:25.202Z,92.00
2019-03-17T05:11:25.134Z,104.00
2019-03-17T05:12:25.123Z,120.00
2019-03-17T05:13:25.148Z,128.00
2019-03-17T05:14:25.098Z,144.00
2019-03-17T05:15:25.092Z,156.00
2019-03-17T05:16:25.080Z,168.00
2019-03-17T05:17:25.067Z,180.00
2019-03-17T05:18:25.084Z,188.00
2019-03-17T05:19:25.070Z,204.00
2019-03-17T05:20:25.030Z,220.00
2019-03-17T05:21:25.026Z,244.00
2019-03-17T05:22:25.014Z,264.00
2019-03-17T05:23:25.028Z,272.00
2019-03-17T05:24:25.008Z,264.00
2019-03-17T05:25:24.987Z,260.00
2019-03-17T05:26:25.036Z,264.00
2019-03-17T05:27:24.958Z,280.00
2019-03-17T05:28:24.948Z,300.00
2019-03-17T05:29:24.957Z,328.00
2019-03-17T05:30:24.924Z,352.00
2019-03-17T05:31:24.914Z,368.00
2019-03-17T05:32:24.912Z,364.00
2019-03-17T05:33:24.895Z,352.00
2019-03-17T05:34:24.898Z,364.00
2019-03-17T05:35:24.871Z,392.00
2019-03-17T05:36:24.862Z,420.00
2019-03-17T05:37:24.856Z,448.00
2019-03-17T05:38:24.860Z,456.00
2019-03-17T05:39:24.843Z,460.00
2019-03-17T05:40:24.817Z,468.00
2019-03-17T05:41:24.812Z,472.00
2019-03-17T05:42:24.801Z,468.00
2019-03-17T05:43:24.785Z,476.00
2019-03-17T05:44:24.805Z,504.00
2019-03-17T05:45:24.779Z,524.00
2019-03-17T05:46:24.751Z,540.00
2019-03-17T05:47:24.743Z,568.00
2019-03-17T05:48:24.729Z,616.00
2019-03-17T05:49:24.743Z,648.00
2019-03-17T05:50:24.717Z,664.00
2019-03-17T05:51:24.705Z,724.00
2019-03-17T05:52:24.689Z,820.00
2019-03-17T05:53:24.679Z,884.00
2019-03-17T05:54:24.683Z,932.00
2019-03-17T05:55:24.657Z,992.00
2019-03-17T05:56:24.645Z,1064.00
2019-03-17T05:57:24.643Z,1116.00
2019-03-17T05:58:24.649Z,1172.00
2019-03-17T05:59:24.632Z,1280.00
2019-03-17T06:00:24.601Z,1480.00
2019-03-17T06:01:24.589Z,1676.00
2019-03-17T06:02:24.582Z,1756.00
2019-03-17T06:03:24.571Z,1872.00
2019-03-17T06:04:24.589Z,1952.00
2019-03-17T06:05:24.549Z,2000.00
2019-03-17T06:06:24.537Z,2040.00
2019-03-17T06:07:24.532Z,2088.00
2019-03-17T06:08:24.511Z,2212.00
2019-03-17T06:09:24.517Z,2408.00
2019-03-17T06:10:24.527Z,2596.00
2019-03-17T06:11:24.483Z,2604.00
2019-03-17T06:12:24.491Z,2724.00
2019-03-17T06:13:24.458Z,2916.00
2019-03-17T06:14:24.479Z,2936.00
2019-03-17T06:15:24.439Z,2988.00
2019-03-17T06:16:24.446Z,2912.00
2019-03-17T06:17:24.428Z,2764.00
2019-03-17T06:18:24.411Z,2768.00
2019-03-17T06:19:24.394Z,2896.00
2019-03-17T06:20:24.399Z,3052.00
2019-03-17T06:21:24.378Z,3248.00
2019-03-17T06:22:24.377Z,3312.00
2019-03-17T06:23:24.352Z,3228.00
2019-03-17T06:24:24.337Z,3172.00
2019-03-17T06:25:24.347Z,3192.00
2019-03-17T06:26:24.320Z,3284.00
2019-03-17T06:27:24.306Z,3400.00
2019-03-17T06:28:24.313Z,3420.00
2019-03-17T06:29:24.284Z,3292.00
2019-03-17T06:30:24.286Z,3136.00
2019-03-17T06:31:24.262Z,3088.00
2019-03-17T06:32:24.269Z,3068.00
2019-03-17T06:33:24.240Z,2980.00
2019-03-17T06:34:24.501Z,2940.00
2019-03-17T06:35:24.235Z,2992.00
2019-03-17T06:36:24.229Z,2988.00
2019-03-17T06:37:31.119Z,2996.00
2019-03-17T06:38:25.186Z,2920.00
2019-03-17T06:39:24.186Z,2908.00
2019-03-17T06:40:24.186Z,2956.00
2019-03-17T06:41:24.154Z,3060.00
2019-03-17T06:42:24.142Z,3128.00
2019-03-17T06:43:24.130Z,3188.00
2019-03-17T06:44:24.129Z,3204.00
2019-03-17T06:45:24.151Z,3228.00
2019-03-17T06:46:24.102Z,3264.00
2019-03-17T06:47:24.086Z,3300.00
2019-03-17T06:48:24.082Z,3404.00
2019-03-17T06:49:24.066Z,3576.00
2019-03-17T06:50:24.086Z,3756.00
2019-03-17T06:51:24.071Z,3932.00
2019-03-17T06:52:24.030Z,4220.00
2019-03-17T06:53:24.028Z,4504.00
2019-03-17T06:54:24.016Z,4876.00
2019-03-17T06:55:24.020Z,5236.00
2019-03-17T06:56:23.999Z,5604.00
2019-03-17T06:57:23.995Z,5516.00
2019-03-17T06:58:23.970Z,5672.00
2019-03-17T06:59:23.960Z,6344.00
2019-03-17T07:00:23.968Z,7680.00
2019-03-17T07:01:23.936Z,7540.00
2019-03-17T07:02:23.930Z,7808.00
2019-03-17T07:03:23.965Z,8204.00
2019-03-17T07:04:23.938Z,8808.00
2019-03-17T07:05:23.917Z,9152.00
2019-03-17T07:06:23.882Z,9216.00
2019-03-17T07:07:23.892Z,8708.00
2019-03-17T07:08:23.865Z,9056.00
2019-03-17T07:09:23.861Z,9304.00
2019-03-17T07:10:23.914Z,9456.00
2019-03-17T07:11:23.839Z,9332.00
2019-03-17T07:12:23.815Z,8860.00
2019-03-17T07:13:23.810Z,7704.00
2019-03-17T07:14:23.921Z,6640.00
2019-03-17T07:15:23.801Z,6364.00
2019-03-17T07:16:23.775Z,7144.00
2019-03-17T07:17:23.770Z,8156.00
2019-03-17T07:18:23.758Z,8412.00
2019-03-17T07:19:23.768Z,8108.00
2019-03-17T07:20:23.743Z,8536.00
2019-03-17T07:21:23.736Z,9056.00
2019-03-17T07:22:23.704Z,7676.00
2019-03-17T07:23:23.696Z,6068.00
2019-03-17T07:24:23.699Z,5768.00
2019-03-17T07:25:23.690Z,6064.00
2019-03-17T07:26:23.664Z,6568.00
2019-03-17T07:27:23.651Z,6460.00
2019-03-17T07:28:23.641Z,6500.00
2019-03-17T07:29:23.641Z,7520.00
2019-03-17T07:30:23.657Z,9364.00
2019-03-17T07:31:23.613Z,10176.00
2019-03-17T07:32:23.605Z,10716.00
2019-03-17T07:33:23.593Z,12448.00
2019-03-17T07:34:23.636Z,13004.00
2019-03-17T07:35:23.587Z,12176.00
2019-03-17T07:36:23.557Z,11468.00
2019-03-17T07:37:23.603Z,11436.00
2019-03-17T07:38:23.652Z,25312.00
2019-03-17T07:39:23.521Z,14212.00
2019-03-17T07:40:23.548Z,11140.00
2019-03-17T07:41:23.570Z,7680.00
2019-03-17T07:42:23.500Z,8120.00
2019-03-17T07:43:23.559Z,8456.00
2019-03-17T07:44:23.467Z,20032.00
2019-03-17T07:45:23.456Z,24064.00
2019-03-17T07:46:23.469Z,23168.00
2019-03-17T07:47:23.440Z,25024.00
2019-03-17T07:48:23.424Z,22656.00
2019-03-17T07:49:23.436Z,28192.00
2019-03-17T07:50:23.404Z,23712.00
2019-03-17T07:51:23.409Z,17312.00
2019-03-17T07:52:23.410Z,19392.00
2019-03-17T07:53:23.367Z,26272.00
2019-03-17T07:54:23.379Z,30144.00
2019-03-17T07:55:23.349Z,42656.00
2019-03-17T07:56:23.353Z,38720.00
2019-03-17T07:57:23.378Z,38272.00
2019-03-17T07:58:23.321Z,38560.00
2019-03-17T07:59:23.315Z,38496.00
2019-03-17T08:00:31.961Z,33312.00
2019-03-17T08:01:24.314Z,34400.00
2019-03-17T08:02:23.292Z,33888.00
2019-03-17T08:03:23.261Z,37568.00
2019-03-17T08:04:23.258Z,39776.00
2019-03-17T08:05:23.251Z,39488.00
2019-03-17T08:06:23.258Z,40448.00
2019-03-17T08:07:23.224Z,42080.00
2019-03-17T08:08:23.251Z,41760.00
2019-03-17T08:09:23.198Z,38848.00
2019-03-17T08:10:23.184Z,39072.00
2019-03-17T08:11:23.234Z,36544.00
2019-03-17T08:12:23.164Z,37472.00
2019-03-17T08:13:23.153Z,36832.00
2019-03-17T08:14:23.136Z,39200.00
2019-03-17T08:15:23.132Z,42400.00
2019-03-17T08:16:23.140Z,42496.00
2019-03-17T08:17:23.104Z,37888.00
2019-03-17T08:18:23.096Z,38912.00
2019-03-17T08:19:23.085Z,38752.00
2019-03-17T08:20:23.102Z,44544.00
2019-03-17T08:21:23.100Z,39104.00
2019-03-17T08:22:23.062Z,45312.00
2019-03-17T08:23:23.140Z,46464.00
2019-03-17T08:24:23.046Z,46176.00
2019-03-17T08:25:23.024Z,43584.00
2019-03-17T08:26:23.047Z,36800.00
2019-03-17T08:27:23.004Z,32544.00
2019-03-17T08:28:23.156Z,33312.00
2019-03-17T08:29:22.983Z,38816.00
2019-03-17T08:30:23.026Z,37184.00
2019-03-17T08:31:23.052Z,31968.00
2019-03-17T08:32:23.012Z,29088.00
2019-03-17T08:33:22.944Z,22336.00
2019-03-17T08:34:22.994Z,15912.00
2019-03-17T08:35:22.936Z,19328.00
2019-03-17T08:36:22.926Z,21344.00
2019-03-17T08:37:22.899Z,40448.00
2019-03-17T08:38:22.890Z,20384.00
2019-03-17T08:39:22.865Z,32288.00
2019-03-17T08:40:22.857Z,24128.00
2019-03-17T08:41:22.947Z,30720.00
2019-03-17T08:42:22.847Z,25216.00
2019-03-17T08:43:22.855Z,24096.00
2019-03-17T08:44:22.823Z,25472.00
2019-03-17T08:45:22.803Z,24512.00
2019-03-17T08:46:22.796Z,21152.00
2019-03-17T08:47:22.799Z,20288.00
2019-03-17T08:48:22.777Z,22432.00
2019-03-17T08:49:22.815Z,24320.00
2019-03-17T08:50:22.803Z,23712.00
2019-03-17T08:51:22.842Z,20288.00
2019-03-17T08:52:22.746Z,19392.00
2019-03-17T08:53:22.723Z,22272.00
2019-03-17T08:54:22.753Z,24672.00
2019-03-17T08:55:22.695Z,22176.00
2019-03-17T08:56:22.717Z,21440.00
2019-03-17T08:57:22.701Z,21600.00
2019-03-17T08:58:22.671Z,24864.00
2019-03-17T08:59:22.665Z,28992.00
2019-03-17T09:00:22.652Z,21024.00
2019-03-17T09:01:22.631Z,18432.00
2019-03-17T09:02:22.643Z,19200.00
2019-03-17T09:03:22.730Z,17184.00
2019-03-17T09:04:22.705Z,17440.00
2019-03-17T09:05:22.589Z,18240.00
2019-03-17T09:06:22.651Z,20448.00
2019-03-17T09:07:22.616Z,23552.00
2019-03-17T09:08:34.397Z,21856.00
2019-03-17T09:09:23.548Z,24288.00
2019-03-17T09:10:22.551Z,15604.00
2019-03-17T09:11:22.528Z,9116.00
2019-03-17T09:12:22.541Z,10872.00
2019-03-17T09:13:22.519Z,22688.00
2019-03-17T09:14:22.493Z,16480.00
2019-03-17T09:15:22.493Z,33664.00
2019-03-17T09:16:22.465Z,19040.00
2019-03-17T09:17:22.486Z,39552.00
2019-03-17T09:18:22.447Z,41696.00
2019-03-17T09:19:22.502Z,32416.00
2019-03-17T09:20:22.427Z,38944.00
2019-03-17T09:21:22.414Z,29952.00
2019-03-17T09:22:22.413Z,13012.00
2019-03-17T09:23:22.398Z,7676.00
2019-03-17T09:24:22.391Z,7468.00
2019-03-17T09:25:22.424Z,8020.00
2019-03-17T09:26:22.379Z,21184.00
2019-03-17T09:27:22.372Z,39648.00
2019-03-17T09:28:22.345Z,32000.00
2019-03-17T09:29:22.332Z,55488.00
2019-03-17T09:30:22.329Z,45664.00
2019-03-17T09:31:22.321Z,15996.00
2019-03-17T09:32:22.345Z,8840.00
2019-03-17T09:33:22.282Z,34336.00
2019-03-17T09:34:22.271Z,35296.00
2019-03-17T09:35:22.263Z,42400.00
2019-03-17T09:36:22.253Z,32896.00
2019-03-17T09:37:22.254Z,39808.00
2019-03-17T09:38:22.242Z,29632.00
2019-03-17T09:39:22.222Z,18080.00
2019-03-17T09:40:22.213Z,15444.00
2019-03-17T09:41:22.212Z,14856.00
2019-03-17T09:42:22.219Z,15360.00
2019-03-17T09:43:22.180Z,11156.00
2019-03-17T09:44:22.210Z,10832.00
2019-03-17T09:45:22.154Z,19040.00
2019-03-17T09:46:22.144Z,18464.00
2019-03-17T09:47:22.136Z,28096.00
2019-03-17T09:48:22.144Z,32960.00
2019-03-17T09:49:22.108Z,21952.00
2019-03-17T09:50:22.094Z,15692.00
2019-03-17T09:51:22.086Z,13996.00
2019-03-17T09:52:22.094Z,18720.00
2019-03-17T09:53:22.098Z,25344.00
2019-03-17T09:54:22.139Z,30496.00
2019-03-17T09:55:22.150Z,23232.00
2019-03-17T09:56:22.033Z,23424.00
2019-03-17T09:57:22.019Z,39232.00
2019-03-17T09:58:22.202Z,25728.00
2019-03-17T09:59:22.028Z,27488.00
2019-03-17T10:00:22.018Z,29536.00
2019-03-17T10:01:21.975Z,33728.00
2019-03-17T10:02:21.973Z,54656.00
2019-03-17T10:03:22.018Z,24928.00
2019-03-17T10:04:21.945Z,24960.00
2019-03-17T10:05:21.978Z,21984.00
2019-03-17T10:06:21.984Z,21600.00
2019-03-17T10:07:21.914Z,21024.00
2019-03-17T10:08:21.923Z,20064.00
2019-03-17T10:09:21.930Z,16768.00
2019-03-17T10:10:21.998Z,12316.00
2019-03-17T10:11:21.922Z,11240.00
2019-03-17T10:12:21.859Z,10900.00
2019-03-17T10:13:21.925Z,11668.00
2019-03-17T10:14:21.837Z,13300.00
2019-03-17T10:15:21.829Z,12760.00
2019-03-17T10:16:21.817Z,11720.00
2019-03-17T10:17:21.807Z,13652.00
2019-03-17T10:18:21.912Z,15264.00
2019-03-17T10:19:21.800Z,17344.00
2019-03-17T10:20:21.799Z,17024.00
2019-03-17T10:21:21.761Z,13752.00
2019-03-17T10:22:21.791Z,11468.00
2019-03-17T10:23:21.741Z,11404.00
2019-03-17T10:24:21.747Z,12016.00
2019-03-17T10:25:21.723Z,9844.00
2019-03-17T10:26:21.708Z,9244.00
2019-03-17T10:27:21.693Z,9504.00
2019-03-17T10:28:21.702Z,10632.00
2019-03-17T10:29:21.689Z,10236.00
2019-03-17T10:30:21.660Z,10008.00
2019-03-17T10:31:21.652Z,10688.00
2019-03-17T10:32:21.649Z,10960.00
2019-03-17T10:33:21.636Z,10592.00
2019-03-17T10:34:21.652Z,9564.00
2019-03-17T10:35:21.617Z,8748.00
2019-03-17T10:36:21.599Z,8592.00
2019-03-17T10:37:21.646Z,9384.00
2019-03-17T10:38:21.578Z,9556.00
2019-03-17T10:39:21.589Z,9948.00
2019-03-17T10:40:21.558Z,10676.00
2019-03-17T10:41:21.566Z,12128.00
2019-03-17T10:42:21.542Z,13168.00
2019-03-17T10:43:21.517Z,14848.00
2019-03-17T10:44:21.546Z,17664.00
2019-03-17T10:45:21.591Z,19008.00
2019-03-17T10:46:21.561Z,20576.00
2019-03-17T10:47:21.475Z,24640.00
2019-03-17T10:48:21.468Z,26240.00
2019-03-17T10:49:21.510Z,25888.00
2019-03-17T10:50:21.458Z,23680.00
2019-03-17T10:51:21.431Z,21376.00
2019-03-17T10:52:21.433Z,19936.00
2019-03-17T10:53:21.425Z,18720.00
2019-03-17T10:54:21.498Z,18560.00
2019-03-17T10:55:21.498Z,18016.00
2019-03-17T10:56:21.388Z,16992.00
2019-03-17T10:57:21.383Z,16180.00
2019-03-17T10:58:21.353Z,16008.00
2019-03-17T10:59:21.484Z,16296.00
2019-03-17T11:00:21.386Z,17440.00
2019-03-17T11:01:21.325Z,17664.00
2019-03-17T11:02:21.320Z,17088.00
2019-03-17T11:03:21.480Z,15884.00
2019-03-17T11:04:21.295Z,16448.00
2019-03-17T11:05:21.302Z,19008.00
2019-03-17T11:06:21.270Z,18816.00
2019-03-17T11:07:21.382Z,17760.00
2019-03-17T11:08:21.259Z,18624.00
2019-03-17T11:09:25.515Z,21344.00
2019-03-17T11:10:21.289Z,21920.00
2019-03-17T11:11:21.218Z,21568.00
2019-03-17T11:12:21.229Z,21504.00
2019-03-17T11:13:21.230Z,19360.00
2019-03-17T11:14:21.180Z,17984.00
2019-03-17T11:15:21.194Z,17696.00
2019-03-17T11:16:21.176Z,16352.00
2019-03-17T11:17:21.148Z,18720.00
2019-03-17T11:18:21.140Z,20512.00
2019-03-17T11:19:21.262Z,24128.00
2019-03-17T11:20:21.140Z,34560.00
2019-03-17T11:21:21.126Z,29120.00
2019-03-17T11:22:21.092Z,28320.00
2019-03-17T11:23:21.086Z,25984.00
2019-03-17T11:24:21.073Z,26496.00
2019-03-17T11:25:21.071Z,27168.00
2019-03-17T11:26:21.064Z,25024.00
2019-03-17T11:27:21.160Z,23488.00
2019-03-17T11:28:21.036Z,23136.00
2019-03-17T11:29:21.016Z,21952.00
2019-03-17T11:30:21.026Z,21024.00
2019-03-17T11:31:21.048Z,23104.00
2019-03-17T11:32:21.054Z,23520.00
2019-03-17T11:33:20.980Z,21280.00
2019-03-17T11:34:21.080Z,20768.00
2019-03-17T11:37:10.976Z,17216.00
2019-03-17T11:37:34.759Z,18496.00
2019-03-17T11:38:34.756Z,21184.00
2019-03-17T11:39:38.074Z,20544.00
2019-03-17T11:40:34.828Z,16736.00
2019-03-17T11:41:34.717Z,14804.00
2019-03-17T11:42:34.687Z,14308.00
2019-03-17T11:43:34.697Z,14032.00
2019-03-17T11:44:34.697Z,15420.00
2019-03-17T11:45:34.702Z,17920.00
2019-03-17T11:46:34.689Z,18944.00
2019-03-17T11:47:34.642Z,20864.00
2019-03-17T11:48:34.633Z,21696.00
2019-03-17T11:49:34.629Z,18656.00
2019-03-17T11:50:34.669Z,16244.00
2019-03-17T11:51:34.691Z,15772.00
2019-03-17T11:52:34.607Z,13592.00
2019-03-17T11:53:34.598Z,9800.00
2019-03-17T11:54:34.709Z,8472.00
2019-03-17T11:55:34.553Z,8356.00
2019-03-17T11:56:34.547Z,9484.00
2019-03-17T11:57:34.539Z,9788.00
2019-03-17T11:58:34.526Z,8248.00
2019-03-17T11:59:34.544Z,6708.00
2019-03-17T12:00:34.523Z,5712.00
2019-03-17T12:01:34.489Z,6336.00
2019-03-17T12:02:34.491Z,6324.00
2019-03-17T12:03:34.477Z,6016.00
2019-03-17T12:04:34.457Z,7584.00
2019-03-17T12:05:34.456Z,8576.00
2019-03-17T12:06:34.431Z,10688.00
2019-03-17T12:07:34.441Z,12040.00
2019-03-17T12:08:34.412Z,10120.00
2019-03-17T12:09:34.401Z,7364.00
2019-03-17T12:10:34.407Z,6172.00
2019-03-17T12:11:34.377Z,6680.00
2019-03-17T12:12:34.404Z,7868.00
2019-03-17T12:13:34.366Z,10204.00
2019-03-17T12:14:34.341Z,14016.00
2019-03-17T12:15:34.337Z,17856.00
2019-03-17T12:16:34.327Z,17600.00
2019-03-17T12:17:34.340Z,15848.00
2019-03-17T12:18:34.305Z,15940.00
2019-03-17T12:19:34.289Z,17184.00
2019-03-17T12:20:34.284Z,16736.00
2019-03-17T12:21:34.322Z,15272.00
2019-03-17T12:22:34.282Z,15172.00
2019-03-17T12:23:34.268Z,17408.00
2019-03-17T12:24:34.228Z,17952.00
2019-03-17T12:25:34.236Z,16896.00
2019-03-17T12:26:34.208Z,14844.00
2019-03-17T12:27:34.232Z,13052.00